ソルトレイクシティ の空港の天気 - METARとTAF

ソルト・レーク・シティ国際空港 ( KSLC / SLC ) - アメリカ ユタ州ソルトレイクシティ
飛行場実況気象(Metar)
観測時間09/22 16:54 MDT (09/22 22:54 UTC)
風向・風速北北西 4m/s
視程10km以上
天気現象
全天の4割程度の雲 雲底高度 3350m
全天の8割程度の雲 雲底高度 6100m
気温26.7℃
湿度14%
気圧1016.9hPa
METARKSLC 222254Z 33008KT 10SM SCT110 BKN200 27/M03 A3015 RMK AO2 SLP169 FU SCT110 FU ALQDS T02671033
過去の天気等 Google飛行場航空写真 Wunderground天気予報

過去48時間のMETAR

飛行場予報(TAF)
発表時間: 9/22 17:25 MDT (9/22 23:25 UTC)
予報対象時間: 22日18時 MDT ~ 24日0時 MDT
風向・風速北北西 4m/s
視程10km以上
少しの雲 雲底高度 3660m
全天の4割程度の雲 雲底高度 6100m
22日21時 MDT から
風向・風速南南東 3m/s
視程10km以上
全天の4割程度の雲 雲底高度 3660m
全天の4割程度の雲 雲底高度 6100m
23日9時 MDT から
風向・風速北北西 4m/s
視程10km以上
全天の8割程度の雲 雲底高度 3660m
全天の8割程度の雲 雲底高度 6100m
23日14時 MDT から
風向・風速北北西 6m/s 瞬間風速 10m/s
視程10km以上
全天の4割程度の雲 雲底高度 3050m
全天の4割程度の雲 雲底高度 6100m
23日22時 MDT から
風向・風速南南東 2m/s
視程10km以上
全天の4割程度の雲 雲底高度 6100m
KSLC 222325Z 2300/2406 33007KT P6SM FEW120 SCT200
FM230300 15006KT P6SM SCT120 SCT200
FM231500 34008KT P6SM BKN120 BKN200
FM232000 34011G20KT P6SM SCT100 SCT200
FM240400 15004KT P6SM SCT200